Time;durP1;ratioP1;P1;durP2;ratioP2;P2;SDS_P1;SDS_P2;PMS_P1;PMS_P2;Temp;Humidity;BMP_temperature;BMP_pressure;BME280_temperature;BME280_humidity;BME280_pressure;Samples;Min_cycle;Max_cycle;Signal;HPM_P1;HPM_P2
2021/05/19 00:01:14;;;;;;;2.07;1.67;;;;;;;11.49;94.85;100348.50;628382;227;24930;-77
2021/05/19 00:03:42;;;;;;;1.40;1.30;;;;;;;11.63;95.45;100348.95;627499;225;24863;-77
2021/05/19 00:06:12;;;;;;;3.90;1.50;;;;;;;11.47;96.19;100340.02;637896;225;24821;-77
2021/05/19 00:08:38;;;;;;;1.77;1.13;;;;;;;11.40;96.48;100346.80;638295;224;24876;-78
2021/05/19 00:11:06;;;;;;;2.43;1.30;;;;;;;11.30;96.16;100346.84;622964;229;23952;-78
2021/05/19 00:13:35;;;;;;;1.63;1.20;;;;;;;11.27;97.16;100347.15;624019;226;27075;-77
2021/05/19 00:16:02;;;;;;;3.30;1.80;;;;;;;11.23;97.22;100343.17;635369;225;23930;-77
2021/05/19 00:18:30;;;;;;;2.90;1.60;;;;;;;11.27;96.92;100347.15;634055;225;24889;-77
2021/05/19 00:20:58;;;;;;;1.20;1.10;;;;;;;11.20;97.13;100341.36;640906;222;24897;-77
2021/05/19 00:23:26;;;;;;;1.50;1.40;;;;;;;11.06;98.49;100342.66;627145;225;25042;-77
2021/05/19 00:25:54;;;;;;;1.90;1.50;;;;;;;11.20;98.24;100348.69;640629;222;24839;-77
2021/05/19 00:28:22;;;;;;;2.43;1.33;;;;;;;11.23;97.53;100344.48;639707;224;24859;-77
2021/05/19 00:30:53;;;;;;;2.57;1.50;;;;;;;11.20;98.55;100343.48;641103;224;25321;-77
2021/05/19 00:33:18;;;;;;;1.97;1.50;;;;;;;11.07;98.62;100339.09;632568;225;24976;-77
2021/05/19 00:35:46;;;;;;;2.70;1.60;;;;;;;10.99;98.29;100341.62;626426;226;24913;-78
2021/05/19 00:38:14;;;;;;;2.40;1.77;;;;;;;10.91;99.65;100341.02;634140;225;23866;-77
2021/05/19 00:40:42;;;;;;;3.03;1.67;;;;;;;10.94;98.79;100337.31;637348;224;24836;-77
2021/05/19 00:43:10;;;;;;;5.23;2.77;;;;;;;10.73;99.33;100345.84;625183;229;25189;-76
2021/05/19 00:45:38;;;;;;;1.40;1.30;;;;;;;10.97;99.12;100345.64;633016;221;32684;-77
2021/05/19 00:48:09;;;;;;;2.80;1.83;;;;;;;10.64;99.49;100347.02;627071;228;23860;-77
2021/05/19 00:50:35;;;;;;;1.83;1.73;;;;;;;10.70;99.59;100343.86;626148;229;24867;-77
2021/05/19 00:53:03;;;;;;;2.73;1.60;;;;;;;10.58;99.76;100347.59;640380;223;24860;-77
2021/05/19 00:55:31;;;;;;;2.90;1.60;;;;;;;10.55;99.72;100342.66;639857;221;25568;-77
2021/05/19 00:57:59;;;;;;;3.00;1.80;;;;;;;10.70;99.38;100336.06;633751;224;33029;-77
2021/05/19 01:00:27;;;;;;;2.90;2.20;;;;;;;10.60;99.92;100334.45;642496;224;24854;-77
2021/05/19 01:02:55;;;;;;;1.93;1.73;;;;;;;10.30;100.00;100335.50;640104;224;24866;-77
2021/05/19 01:05:27;;;;;;;2.67;2.00;;;;;;;10.34;100.00;100335.55;636838;221;24837;-77
2021/05/19 01:10:25;;;;;;;3.10;1.70;;;;;;;10.20;100.00;100333.36;637514;223;24833;-77
2021/05/19 01:12:53;;;;;;;4.37;2.40;;;;;;;10.08;100.00;100340.00;628729;227;24904;-77
2021/05/19 01:15:21;;;;;;;3.70;2.10;;;;;;;10.06;100.00;100343.22;636266;221;24920;-75
2021/05/19 01:18:00;;;;;;;1.80;1.70;;;;;;;10.03;100.00;100340.91;638025;224;24805;-76
2021/05/19 01:20:28;;;;;;;3.30;2.10;;;;;;;10.00;100.00;100339.89;632301;225;24945;-75
2021/05/19 01:22:56;;;;;;;2.93;1.83;;;;;;;9.98;100.00;100337.06;637000;225;24817;-75
2021/05/19 01:25:24;;;;;;;3.30;1.80;;;;;;;10.01;100.00;100333.73;628456;225;32852;-75
2021/05/19 01:27:53;;;;;;;2.97;1.70;;;;;;;10.10;100.00;100335.48;629751;225;32850;-75
2021/05/19 01:30:21;;;;;;;3.02;1.90;;;;;;;10.25;99.21;100327.28;632873;225;32713;-76
2021/05/19 01:32:49;;;;;;;4.30;2.03;;;;;;;10.00;100.00;100333.39;627700;222;23748;-75
2021/05/19 01:35:17;;;;;;;2.27;2.13;;;;;;;10.02;100.00;100337.15;625144;229;24914;-75
2021/05/19 01:37:45;;;;;;;2.73;1.90;;;;;;;9.96;100.00;100333.31;633815;225;24906;-76
2021/05/19 01:40:14;;;;;;;2.13;1.93;;;;;;;9.84;100.00;100329.20;629454;225;24904;-76
2021/05/19 01:42:42;;;;;;;3.63;1.93;;;;;;;9.95;100.00;100332.15;626495;226;24897;-76
2021/05/19 01:45:11;;;;;;;3.20;2.00;;;;;;;9.91;100.00;100332.91;630800;226;24893;-76
2021/05/19 01:47:41;;;;;;;6.10;2.23;;;;;;;9.79;100.00;100332.23;638598;225;24926;-76
2021/05/19 01:50:10;;;;;;;2.17;1.90;;;;;;;9.71;100.00;100326.06;632652;225;24985;-76
2021/05/19 01:52:38;;;;;;;2.70;1.90;;;;;;;9.76;100.00;100326.49;625550;229;24855;-76
2021/05/19 01:55:07;;;;;;;4.60;2.20;;;;;;;9.75;100.00;100332.17;624697;225;24918;-75
2021/05/19 01:57:35;;;;;;;2.60;2.23;;;;;;;9.85;100.00;100329.55;640883;223;24910;-76
2021/05/19 02:00:04;;;;;;;3.90;2.10;;;;;;;10.11;99.73;100330.62;621956;229;39367;-76
2021/05/19 02:02:32;;;;;;;3.00;1.97;;;;;;;9.75;100.00;100334.77;627212;228;24902;-77
2021/05/19 02:05:00;;;;;;;4.60;2.13;;;;;;;9.61;100.00;100342.14;641365;220;24868;-77
2021/05/19 02:07:28;;;;;;;2.57;2.37;;;;;;;9.74;100.00;100345.30;638303;224;24862;-77
2021/05/19 02:09:56;;;;;;;2.60;2.40;;;;;;;9.93;100.00;100345.28;625765;229;24831;-77
2021/05/19 02:12:24;;;;;;;2.03;1.90;;;;;;;9.64;100.00;100349.66;626333;228;24934;-77
2021/05/19 02:14:52;;;;;;;4.63;2.67;;;;;;;9.86;100.00;100345.98;634390;221;32752;-77
2021/05/19 02:17:20;;;;;;;3.20;2.80;;;;;;;9.64;100.00;100357.45;639339;224;24852;-77
2021/05/19 02:19:48;;;;;;;4.97;2.40;;;;;;;9.58;100.00;100356.22;630465;225;24918;-76
2021/05/19 02:22:16;;;;;;;4.10;1.90;;;;;;;9.47;100.00;100355.86;629606;226;24887;-76
2021/05/19 02:24:44;;;;;;;2.50;2.20;;;;;;;9.44;100.00;100356.13;626058;225;24919;-77
2021/05/19 02:27:12;;;;;;;3.30;2.50;;;;;;;9.33;100.00;100355.42;624817;229;24934;-76
2021/05/19 02:29:40;;;;;;;3.10;2.40;;;;;;;9.30;100.00;100357.81;626178;228;24907;-76
2021/05/19 02:32:08;;;;;;;13.53;2.60;;;;;;;9.37;100.00;100361.50;630878;226;24963;-76
2021/05/19 02:34:36;;;;;;;2.83;2.50;;;;;;;9.26;100.00;100359.48;626885;225;24855;-77
2021/05/19 02:37:04;;;;;;;4.40;2.70;;;;;;;9.29;100.00;100353.58;624846;229;24846;-76
2021/05/19 02:39:32;;;;;;;3.17;2.80;;;;;;;9.28;100.00;100354.50;627268;227;24909;-76
2021/05/19 02:42:00;;;;;;;4.00;3.10;;;;;;;9.32;100.00;100355.08;639049;224;24861;-76
2021/05/19 02:44:28;;;;;;;3.63;2.80;;;;;;;9.39;100.00;100349.20;638734;220;24822;-76
2021/05/19 02:46:56;;;;;;;4.87;2.80;;;;;;;9.35;100.00;100353.03;639023;224;26020;-75
2021/05/19 02:49:23;;;;;;;4.93;3.30;;;;;;;9.38;100.00;100351.94;639056;224;24812;-77
2021/05/19 02:51:51;;;;;;;4.53;3.00;;;;;;;9.22;100.00;100354.58;638614;224;24817;-77
2021/05/19 02:54:19;;;;;;;4.63;3.07;;;;;;;9.19;100.00;100350.95;640977;221;24857;-77
2021/05/19 02:56:47;;;;;;;6.10;3.40;;;;;;;9.30;100.00;100355.70;639703;224;24854;-77
2021/05/19 02:59:15;;;;;;;2.50;2.30;;;;;;;9.44;100.00;100356.13;639982;224;24878;-77
2021/05/19 03:01:43;;;;;;;3.30;2.73;;;;;;;9.27;100.00;100363.73;639025;224;24860;-77
2021/05/19 03:04:11;;;;;;;5.73;3.07;;;;;;;9.49;100.00;100372.12;636852;221;24832;-77
2021/05/19 03:06:39;;;;;;;6.10;3.80;;;;;;;9.73;100.00;100361.84;621490;226;32914;-77
2021/05/19 03:09:07;;;;;;;8.03;4.53;;;;;;;9.35;100.00;100364.72;625889;229;24825;-76
2021/05/19 03:11:35;;;;;;;6.83;4.33;;;;;;;9.37;100.00;100366.69;639371;224;24901;-76
2021/05/19 03:14:03;;;;;;;7.73;4.93;;;;;;;9.38;100.00;100368.33;626047;225;24909;-77
2021/05/19 03:16:33;;;;;;;10.80;5.93;;;;;;;9.33;100.00;100374.41;627565;227;24908;-77
2021/05/19 03:18:59;;;;;;;7.23;5.47;;;;;;;9.31;100.00;100375.03;626252;229;26081;-77
2021/05/19 03:21:27;;;;;;;9.13;6.60;;;;;;;9.25;100.00;100380.73;641636;223;25265;-76
2021/05/19 03:23:55;;;;;;;8.10;6.10;;;;;;;9.50;100.00;100378.12;632488;221;32730;-76
2021/05/19 03:26:23;;;;;;;11.70;6.57;;;;;;;9.40;100.00;100382.47;638245;225;24807;-75
2021/05/19 03:28:51;;;;;;;10.60;6.83;;;;;;;9.23;100.00;100384.76;625192;228;25172;-75
2021/05/19 03:31:19;;;;;;;12.87;5.90;;;;;;;9.26;100.00;100388.86;626429;228;24911;-75
2021/05/19 03:33:47;;;;;;;10.27;6.47;;;;;;;9.30;100.00;100393.33;624859;225;24859;-77
2021/05/19 03:36:15;;;;;;;7.00;6.37;;;;;;;9.26;100.00;100388.86;624461;229;24932;-76
2021/05/19 03:38:43;;;;;;;6.87;6.17;;;;;;;9.34;100.00;100391.62;638646;225;24891;-77
2021/05/19 03:41:11;;;;;;;10.80;7.50;;;;;;;9.47;100.00;100393.98;638630;225;24946;-77
2021/05/19 03:43:39;;;;;;;14.60;6.80;;;;;;;9.58;100.00;100390.45;637756;222;24885;-76
2021/05/19 03:46:07;;;;;;;9.70;6.50;;;;;;;9.65;100.00;100392.84;637701;223;24816;-76
2021/05/19 03:48:35;;;;;;;7.57;5.97;;;;;;;9.59;100.00;100392.09;626298;229;24847;-78
2021/05/19 03:51:03;;;;;;;8.40;6.40;;;;;;;9.64;100.00;100398.99;625453;228;24873;-75
2021/05/19 03:53:31;;;;;;;9.98;7.42;;;;;;;10.18;98.67;100393.76;622845;226;32885;-76
2021/05/19 03:55:59;;;;;;;11.03;7.13;;;;;;;10.54;96.60;100399.53;635874;222;32980;-76
2021/05/19 03:58:27;;;;;;;7.70;6.90;;;;;;;10.50;95.39;100405.16;619511;229;32731;-77
2021/05/19 04:00:54;;;;;;;7.93;6.70;;;;;;;9.77;98.88;100411.25;639767;224;24851;-77
2021/05/19 04:03:22;;;;;;;7.90;7.10;;;;;;;10.29;98.28;100407.47;620521;224;43531;-76
2021/05/19 04:05:50;;;;;;;13.70;6.93;;;;;;;9.93;99.87;100419.33;626526;227;24931;-77
2021/05/19 04:08:18;;;;;;;9.60;6.97;;;;;;;10.24;98.49;100413.53;623113;228;32948;-74
2021/05/19 04:10:46;;;;;;;8.67;7.20;;;;;;;10.21;98.52;100427.27;622614;229;24852;-76
2021/05/19 04:13:14;;;;;;;8.73;7.30;;;;;;;10.66;96.58;100411.42;622167;226;42047;-77
2021/05/19 04:15:42;;;;;;;8.80;7.23;;;;;;;10.69;96.42;100422.02;627812;225;24898;-77
2021/05/19 04:18:10;;;;;;;9.70;7.10;;;;;;;10.61;97.41;100423.22;627501;228;24927;-75
2021/05/19 04:20:38;;;;;;;7.40;6.70;;;;;;;10.60;97.40;100431.50;626747;226;24939;-77
2021/05/19 04:23:07;;;;;;;8.00;6.60;;;;;;;10.26;97.85;100440.20;628584;228;24880;-77
2021/05/19 04:25:36;;;;;;;7.73;6.20;;;;;;;10.59;96.75;100431.64;622614;228;24956;-75
2021/05/19 04:28:03;;;;;;;6.40;5.80;;;;;;;10.51;97.81;100432.33;625821;229;24855;-76
2021/05/19 04:30:31;;;;;;;6.63;5.77;;;;;;;10.42;97.62;100434.95;626796;228;24866;-77
2021/05/19 04:32:59;;;;;;;7.00;5.40;;;;;;;10.56;97.95;100434.05;639097;223;25963;-76
2021/05/19 04:35:27;;;;;;;9.73;5.83;;;;;;;10.45;98.44;100432.89;639319;221;24842;-75
2021/05/19 04:37:55;;;;;;;6.27;5.37;;;;;;;10.45;98.97;100438.09;640385;224;24848;-74
2021/05/19 04:40:23;;;;;;;6.10;5.40;;;;;;;10.48;98.65;100436.52;640676;224;24864;-77
2021/05/19 04:42:51;;;;;;;10.33;5.10;;;;;;;10.53;98.38;100438.20;640463;224;24835;-75
2021/05/19 04:45:19;;;;;;;5.60;5.10;;;;;;;10.55;99.02;100435.45;641013;220;25190;-76
2021/05/19 04:47:46;;;;;;;5.70;5.20;;;;;;;10.39;98.29;100435.55;639325;223;24872;-77
2021/05/19 04:50:14;;;;;;;7.50;5.53;;;;;;;10.38;99.71;100440.89;638130;224;24849;-76
2021/05/19 04:52:42;;;;;;;5.97;5.07;;;;;;;10.47;99.24;100445.27;636183;225;23848;-76
2021/05/19 04:55:11;;;;;;;5.60;4.80;;;;;;;10.45;99.32;100439.39;638508;221;25057;-77
2021/05/19 04:57:39;;;;;;;7.05;5.30;;;;;;;10.82;98.99;100447.73;634509;224;32642;-76
2021/05/19 05:02:45;;;;;;;5.60;4.43;;;;;;;10.59;100.00;100458.47;651841;217;25729;-76
2021/05/19 05:05:13;;;;;;;5.20;4.70;;;;;;;10.72;99.83;100469.06;640481;222;24860;-77
2021/05/19 05:07:41;;;;;;;5.90;4.80;;;;;;;10.98;97.97;100458.39;637910;221;32624;-77
2021/05/19 05:10:10;;;;;;;7.30;5.20;;;;;;;10.36;100.00;100472.71;649060;218;23693;-77
2021/05/19 05:12:38;;;;;;;6.47;4.73;;;;;;;10.32;100.00;100469.58;647698;221;24878;-77
2021/05/19 05:15:07;;;;;;;5.77;5.10;;;;;;;10.15;100.00;100480.63;644071;221;24973;-77
2021/05/19 05:17:35;;;;;;;5.87;5.27;;;;;;;10.10;100.00;100480.19;656720;217;24810;-77
2021/05/19 05:20:03;;;;;;;5.93;5.10;;;;;;;10.12;100.00;100479.57;642827;221;24845;-76
2021/05/19 05:22:31;;;;;;;12.10;5.43;;;;;;;10.05;100.00;100475.41;643347;221;24861;-77
2021/05/19 05:24:59;;;;;;;8.10;6.40;;;;;;;9.99;100.00;100486.80;642742;222;24854;-77
2021/05/19 05:27:27;;;;;;;11.37;7.60;;;;;;;9.79;100.00;100483.36;638621;221;24879;-77
2021/05/19 05:29:55;;;;;;;10.77;7.30;;;;;;;9.80;100.00;100487.59;644957;221;28034;-76
2021/05/19 05:32:22;;;;;;;11.77;8.90;;;;;;;9.82;100.00;100484.38;640746;221;25917;-77
2021/05/19 05:34:50;;;;;;;11.30;9.10;;;;;;;9.94;100.00;100485.91;638141;221;32793;-76
2021/05/19 05:37:21;;;;;;;12.93;9.50;;;;;;;9.86;100.00;100487.56;642258;221;23730;-76
2021/05/19 05:39:46;;;;;;;13.20;10.00;;;;;;;9.80;100.00;100484.52;647456;222;24877;-76
2021/05/19 05:42:15;;;;;;;11.67;9.30;;;;;;;9.83;100.00;100480.83;652448;217;24813;-76
2021/05/19 05:44:43;;;;;;;15.47;10.57;;;;;;;10.00;100.00;100491.07;639653;222;24844;-76
2021/05/19 05:47:11;;;;;;;12.37;9.57;;;;;;;10.11;100.00;100490.45;637228;222;24887;-75
2021/05/19 05:49:39;;;;;;;13.77;9.50;;;;;;;10.33;100.00;100492.48;643012;222;24904;-75
2021/05/19 05:52:07;;;;;;;11.40;9.88;;;;;;;10.75;98.65;100493.49;649874;217;32572;-75
2021/05/19 05:54:35;;;;;;;17.30;9.40;;;;;;;10.66;99.00;100492.05;646031;222;25871;-75
2021/05/19 05:57:03;;;;;;;12.83;8.60;;;;;;;10.66;98.17;100491.23;640099;222;25359;-76
2021/05/19 05:59:31;;;;;;;9.50;8.30;;;;;;;11.17;96.88;100486.14;641466;221;32744;-76
2021/05/19 06:01:59;;;;;;;10.37;8.70;;;;;;;10.95;97.51;100497.69;641532;221;25954;-75
2021/05/19 06:04:27;;;;;;;9.43;7.13;;;;;;;10.85;97.41;100498.21;640697;222;23861;-75
2021/05/19 06:06:55;;;;;;;7.70;6.40;;;;;;;10.75;97.79;100500.00;649940;218;24826;-75
2021/05/19 06:09:23;;;;;;;13.40;6.20;;;;;;;10.88;98.00;100498.74;649454;219;26999;-75
2021/05/19 06:11:51;;;;;;;6.83;5.00;;;;;;;10.72;97.92;100504.19;652569;215;24858;-75
2021/05/19 06:14:20;;;;;;;6.70;5.90;;;;;;;10.71;98.54;100505.97;649719;220;24859;-76
2021/05/19 06:16:47;;;;;;;7.33;6.20;;;;;;;11.13;95.98;100511.64;643473;221;43801;-75
2021/05/19 06:19:15;;;;;;;7.80;6.10;;;;;;;10.80;98.14;100512.09;636983;221;24848;-75
2021/05/19 06:21:43;;;;;;;7.13;6.20;;;;;;;10.44;99.39;100514.46;642617;221;24840;-75
2021/05/19 06:24:11;;;;;;;10.77;6.60;;;;;;;10.66;98.85;100518.06;640939;222;24860;-75
2021/05/19 06:26:39;;;;;;;7.03;6.30;;;;;;;10.97;97.69;100517.40;640493;221;24879;-75
2021/05/19 06:29:07;;;;;;;8.70;6.73;;;;;;;11.01;97.53;100514.06;651045;217;24810;-74
2021/05/19 06:31:35;;;;;;;6.83;5.83;;;;;;;11.35;96.71;100513.55;643721;221;24861;-75
2021/05/19 06:34:03;;;;;;;7.10;5.97;;;;;;;11.50;95.80;100512.92;646584;221;24874;-75
2021/05/19 06:36:31;;;;;;;6.43;5.30;;;;;;;11.70;95.26;100508.95;657259;217;26960;-75
2021/05/19 06:38:59;;;;;;;10.13;6.30;;;;;;;11.93;94.69;100505.47;647123;217;32503;-75
2021/05/19 06:41:27;;;;;;;7.30;5.73;;;;;;;11.95;94.81;100508.75;641721;221;23844;-75
2021/05/19 06:43:55;;;;;;;9.80;6.80;;;;;;;11.58;95.28;100518.25;643640;220;24849;-75
2021/05/19 06:46:23;;;;;;;7.50;5.57;;;;;;;11.89;94.59;100521.89;637722;221;24855;-75
2021/05/19 06:48:51;;;;;;;6.63;4.80;;;;;;;11.83;94.01;100519.40;637176;221;24879;-75
2021/05/19 06:51:18;;;;;;;5.33;4.50;;;;;;;11.62;94.79;100514.87;640389;222;24872;-75
2021/05/19 06:53:46;;;;;;;6.50;5.60;;;;;;;12.00;92.94;100508.66;639769;222;32770;-75
2021/05/19 06:56:15;;;;;;;5.73;5.13;;;;;;;12.01;93.18;100514.70;638710;221;28040;-75
2021/05/19 06:58:43;;;;;;;5.97;4.60;;;;;;;12.34;91.74;100510.61;639503;222;25104;-75
2021/05/19 07:01:11;;;;;;;5.40;3.87;;;;;;;12.81;90.45;100505.97;648770;217;24854;-75
2021/05/19 07:03:39;;;;;;;7.90;4.92;;;;;;;12.91;89.09;100505.36;651989;217;43177;-75
2021/05/19 07:06:07;;;;;;;6.93;4.93;;;;;;;13.26;87.18;100506.27;660877;217;24813;-75
2021/05/19 07:08:34;;;;;;;5.57;5.00;;;;;;;13.45;86.95;100498.19;650597;217;26984;-75
2021/05/19 07:11:02;;;;;;;7.53;4.77;;;;;;;13.26;86.77;100511.01;657449;217;24829;-76
2021/05/19 07:13:30;;;;;;;4.97;4.47;;;;;;;13.17;86.61;100511.08;653160;217;23842;-75
2021/05/19 07:16:01;;;;;;;7.60;4.67;;;;;;;12.91;87.73;100517.11;653679;218;24829;-75
2021/05/19 07:18:26;;;;;;;14.03;5.07;;;;;;;12.72;88.15;100523.34;640548;222;23888;-75
2021/05/19 07:20:54;;;;;;;14.37;4.23;;;;;;;12.96;88.22;100532.34;655020;218;24832;-75
2021/05/19 07:23:22;;;;;;;5.10;4.17;;;;;;;12.85;89.15;100527.36;657792;217;24807;-75
2021/05/19 07:25:50;;;;;;;5.33;4.40;;;;;;;13.14;88.55;100528.37;644504;220;23893;-75
2021/05/19 07:28:18;;;;;;;6.00;4.50;;;;;;;13.25;87.37;100530.77;636099;220;32618;-75
2021/05/19 07:30:48;;;;;;;6.67;4.40;;;;;;;13.02;87.94;100527.31;647815;220;23725;-75
2021/05/19 07:33:15;;;;;;;5.77;4.77;;;;;;;13.14;87.66;100527.88;643684;220;24898;-75
2021/05/19 07:35:44;;;;;;;8.18;4.87;;;;;;;13.36;85.17;100515.61;635176;221;43615;-77
2021/05/19 07:38:11;;;;;;;6.90;4.43;;;;;;;13.19;86.41;100520.42;646110;221;23735;-77
2021/05/19 07:40:39;;;;;;;6.05;4.60;;;;;;;13.17;86.56;100522.34;633870;222;32680;-77
2021/05/19 07:43:07;;;;;;;5.47;4.50;;;;;;;13.29;86.87;100526.37;638792;222;23738;-77
2021/05/19 07:45:35;;;;;;;5.63;4.17;;;;;;;12.85;86.40;100528.66;644167;221;24833;-77
2021/05/19 07:48:03;;;;;;;4.87;4.00;;;;;;;13.16;84.32;100532.95;640831;221;24854;-77
2021/05/19 07:50:30;;;;;;;5.57;4.13;;;;;;;13.20;85.96;100536.42;638801;222;24867;-77
2021/05/19 07:52:58;;;;;;;5.13;4.40;;;;;;;12.98;85.22;100532.52;646385;221;23825;-77
2021/05/19 07:55:28;;;;;;;6.60;4.43;;;;;;;12.70;88.04;100547.47;642141;221;24846;-77
2021/05/19 07:57:58;;;;;;;7.30;4.40;;;;;;;13.06;87.73;100552.14;640682;221;25988;-77
2021/05/19 08:00:27;;;;;;;9.30;4.10;;;;;;;13.46;86.30;100545.55;648590;217;24821;-77
2021/05/19 08:02:50;;;;;;;4.63;3.33;;;;;;;13.29;85.45;100536.00;636740;222;24855;-76
2021/05/19 08:05:17;;;;;;;5.23;4.03;;;;;;;13.14;86.15;100536.20;644313;222;24844;-77
2021/05/19 08:07:44;;;;;;;6.45;4.00;;;;;;;13.30;87.10;100538.45;633283;222;32695;-77
2021/05/19 08:10:13;;;;;;;6.77;3.73;;;;;;;13.61;85.33;100530.92;640871;222;23747;-77
2021/05/19 08:12:40;;;;;;;3.83;3.23;;;;;;;13.81;84.97;100522.85;642729;222;23847;-78
2021/05/19 08:15:09;;;;;;;4.90;3.77;;;;;;;13.84;84.46;100523.34;640588;222;24896;-77
2021/05/19 08:17:36;;;;;;;4.27;3.20;;;;;;;14.00;81.16;100508.19;646719;222;23867;-78
2021/05/19 08:20:06;;;;;;;5.53;3.53;;;;;;;14.33;80.58;100506.92;646272;221;24907;-77
2021/05/19 08:22:34;;;;;;;2.60;2.40;;;;;;;14.48;78.86;100505.33;631291;225;24897;-78
2021/05/19 08:25:01;;;;;;;3.03;2.83;;;;;;;15.07;78.06;100498.10;635398;223;24847;-78
2021/05/19 08:27:29;;;;;;;3.30;2.77;;;;;;;14.92;75.65;100477.02;643839;222;24911;-78
2021/05/19 08:29:57;;;;;;;3.30;2.60;;;;;;;14.25;75.45;100479.79;641255;222;24880;-78
2021/05/19 08:32:25;;;;;;;2.93;2.73;;;;;;;14.40;77.15;100481.27;642284;221;24871;-78
2021/05/19 08:34:53;;;;;;;6.07;2.83;;;;;;;14.64;77.84;100497.97;640277;221;24816;-78
2021/05/19 08:37:21;;;;;;;3.93;2.43;;;;;;;14.70;75.36;100488.98;643461;221;28045;-78
2021/05/19 08:39:49;;;;;;;5.40;2.97;;;;;;;15.26;74.28;100487.23;651557;219;24157;-77
2021/05/19 08:42:17;;;;;;;4.23;3.33;;;;;;;15.32;74.12;100479.99;639420;221;23868;-77
2021/05/19 08:44:45;;;;;;;4.77;2.60;;;;;;;15.55;74.34;100489.75;639919;221;24858;-78
2021/05/19 08:47:13;;;;;;;7.10;2.93;;;;;;;15.48;72.53;100480.91;646167;221;23873;-76
2021/05/19 08:49:43;;;;;;;3.10;2.40;;;;;;;15.76;72.66;100474.25;649616;217;23806;-76
2021/05/19 08:52:11;;;;;;;5.50;2.83;;;;;;;15.73;72.51;100479.85;644693;221;23891;-76
2021/05/19 08:54:40;;;;;;;3.90;2.47;;;;;;;15.58;72.66;100468.42;646726;221;24865;-76
2021/05/19 08:57:08;;;;;;;4.73;3.00;;;;;;;15.58;72.16;100470.55;647823;220;23882;-78
2021/05/19 08:59:37;;;;;;;4.03;2.90;;;;;;;16.08;72.98;100471.13;631738;225;23914;-78
2021/05/19 09:02:10;;;;;;;3.20;2.50;;;;;;;15.98;70.74;100465.61;641414;221;24882;-78
2021/05/19 09:04:38;;;;;;;4.60;3.07;;;;;;;15.89;71.35;100465.33;639379;222;24843;-78
2021/05/19 09:07:06;;;;;;;2.90;2.60;;;;;;;16.68;68.96;100458.53;636993;221;23876;-77
2021/05/19 09:09:34;;;;;;;7.13;2.50;;;;;;;16.55;67.89;100444.66;653629;217;23844;-78
2021/05/19 09:12:03;;;;;;;1.77;1.63;;;;;;;16.52;68.53;100446.34;642035;222;23875;-78
2021/05/19 09:14:32;;;;;;;3.33;2.50;;;;;;;16.77;67.50;100448.27;645204;221;23891;-78
2021/05/19 09:17:11;;;;;;;2.63;2.37;;;;;;;17.07;65.37;100439.91;647395;221;23879;-78
2021/05/19 09:19:40;;;;;;;3.37;2.13;;;;;;;17.47;65.74;100434.66;641101;221;24897;-78
2021/05/19 09:22:08;;;;;;;4.37;2.27;;;;;;;17.34;65.07;100431.36;641902;221;23869;-78
2021/05/19 09:24:38;;;;;;;3.30;2.23;;;;;;;17.63;66.25;100438.38;635844;222;23882;-78
2021/05/19 09:27:05;;;;;;;2.77;1.77;;;;;;;17.92;64.40;100435.38;640338;222;27060;-78
2021/05/19 09:29:33;;;;;;;2.10;1.90;;;;;;;17.68;65.18;100426.82;639189;221;23921;-78
2021/05/19 09:32:01;;;;;;;6.77;2.17;;;;;;;17.30;66.40;100434.52;640426;221;23877;-78
2021/05/19 09:34:29;;;;;;;2.70;1.90;;;;;;;17.44;66.71;100431.05;639453;222;24870;-78
2021/05/19 09:37:21;;;;;;;3.33;1.60;;;;;;;16.83;65.98;100428.66;644360;222;23956;-78
2021/05/19 09:39:49;;;;;;;2.00;1.53;;;;;;;17.16;65.71;100424.34;639717;222;23894;-78
2021/05/19 09:42:17;;;;;;;3.50;2.00;;;;;;;16.78;63.77;100421.83;644060;222;23873;-78
2021/05/19 09:44:47;;;;;;;7.73;1.83;;;;;;;17.90;64.73;100416.33;638494;221;24094;-78
2021/05/19 09:47:13;;;;;;;3.52;1.62;;;;;;;18.36;59.91;100396.97;637043;219;32697;-78
2021/05/19 09:49:41;;;;;;;3.70;1.87;;;;;;;17.50;63.04;100391.70;639931;221;22767;-78
2021/05/19 09:52:11;;;;;;;1.80;1.60;;;;;;;17.96;66.44;100407.66;647725;220;23887;-78
2021/05/19 09:54:39;;;;;;;4.20;1.65;;;;;;;17.94;61.80;100397.33;637950;221;32693;-79
2021/05/19 09:57:07;;;;;;;1.70;1.33;;;;;;;17.50;63.98;100402.72;636501;221;23734;-77
2021/05/19 09:59:35;;;;;;;2.30;1.40;;;;;;;17.84;62.30;100396.01;636900;221;23875;-78
2021/05/19 10:02:02;;;;;;;3.60;1.40;;;;;;;18.14;63.78;100396.17;637341;221;23887;-78
2021/05/19 10:04:33;;;;;;;2.00;1.20;;;;;;;17.40;62.84;100391.67;643114;221;24913;-78
2021/05/19 10:06:58;;;;;;;2.50;1.23;;;;;;;17.63;63.24;100388.40;643660;221;23841;-78
2021/05/19 10:09:27;;;;;;;1.37;1.20;;;;;;;17.71;62.31;100389.61;640660;221;23908;-78
2021/05/19 10:11:56;;;;;;;2.50;1.20;;;;;;;18.08;61.25;100375.89;641606;221;23878;-78
2021/05/19 10:14:24;;;;;;;2.85;1.40;;;;;;;18.34;61.02;100365.56;653790;217;43276;-78
2021/05/19 10:16:53;;;;;;;2.50;1.13;;;;;;;18.13;59.89;100362.96;637453;221;22760;-78
2021/05/19 10:19:25;;;;;;;2.57;1.23;;;;;;;18.28;58.27;100346.56;657300;217;24955;-81
2021/05/19 10:21:51;;;;;;;3.23;1.10;;;;;;;17.77;57.45;100353.36;644036;221;28033;-80
2021/05/19 10:24:22;;;;;;;2.90;1.13;;;;;;;17.61;60.43;100358.84;650321;220;23877;-78
2021/05/19 10:27:02;;;;;;;3.67;1.20;;;;;;;17.40;57.19;100345.16;638548;222;24879;-78
2021/05/19 10:29:41;;;;;;;1.80;0.90;;;;;;;17.57;59.94;100341.78;654747;217;26987;-78
2021/05/19 10:32:29;;;;;;;1.70;1.07;;;;;;;17.66;58.78;100336.72;658744;217;24811;-77
2021/05/19 10:34:54;;;;;;;3.90;1.00;;;;;;;17.77;57.67;100331.49;652810;217;23840;-77
2021/05/19 10:37:35;;;;;;;3.97;1.00;;;;;;;18.06;55.91;100327.89;656668;217;23886;-77
2021/05/19 10:40:13;;;;;;;3.93;1.33;;;;;;;18.21;57.97;100317.26;656801;217;23829;-78
2021/05/19 10:42:42;;;;;;;5.37;1.20;;;;;;;18.56;56.83;100315.44;656912;217;23827;-76
2021/05/19 10:45:13;;;;;;;4.42;1.62;;;;;;;18.87;58.29;100315.84;651780;217;32517;-75
2021/05/19 10:47:38;;;;;;;2.67;1.13;;;;;;;19.23;58.34;100318.18;652220;217;22739;-75
2021/05/19 10:50:10;;;;;;;4.60;1.00;;;;;;;19.34;57.46;100310.70;655933;217;23848;-77
2021/05/19 10:57:12;;;;;;;3.33;1.30;;;;;;;19.17;55.38;100293.12;660761;217;23834;-77
2021/05/19 10:58:29;;;;;;;2.30;1.20;;;;;;;20.39;53.83;100282.16;651695;215;32506;-78
2021/05/19 11:00:57;;;;;;;6.57;1.57;;;;;;;19.83;56.63;100280.02;660169;216;23831;-78
2021/05/19 11:03:25;;;;;;;3.27;1.13;;;;;;;19.86;56.15;100286.23;653319;217;23832;-78
2021/05/19 11:06:06;;;;;;;1.50;1.10;;;;;;;20.12;55.76;100284.86;657495;217;23873;-78
2021/05/19 11:08:34;;;;;;;2.37;1.00;;;;;;;20.54;55.76;100288.05;655252;217;43203;-76
2021/05/19 11:11:11;;;;;;;1.10;0.77;;;;;;;20.18;55.04;100277.95;650020;217;22707;-78
2021/05/19 11:13:56;;;;;;;2.90;0.93;;;;;;;19.88;52.85;100272.31;653981;217;23838;-76
2021/05/19 11:16:28;;;;;;;3.53;1.37;;;;;;;19.88;55.85;100268.36;656602;217;23822;-76
2021/05/19 11:19:05;;;;;;;2.70;1.10;;;;;;;20.32;57.79;100284.03;658942;217;24878;-77
2021/05/19 11:21:29;;;;;;;3.20;1.30;;;;;;;20.48;52.31;100266.43;639963;221;23901;-77
2021/05/19 11:24:06;;;;;;;1.33;1.00;;;;;;;20.06;53.57;100269.03;639898;221;24862;-77
2021/05/19 11:26:37;;;;;;;4.77;1.10;;;;;;;19.54;53.43;100260.93;643901;221;23905;-77
2021/05/19 11:29:06;;;;;;;5.23;1.30;;;;;;;20.59;52.52;100257.05;645707;220;23879;-77
2021/05/19 11:31:35;;;;;;;3.07;1.10;;;;;;;20.65;52.49;100247.75;641666;222;23889;-77
2021/05/19 11:34:04;;;;;;;1.90;1.10;;;;;;;20.72;52.27;100247.23;648939;218;23839;-77
2021/05/19 11:36:31;;;;;;;2.50;0.97;;;;;;;20.39;50.46;100240.70;642642;222;23873;-77
2021/05/19 11:39:01;;;;;;;3.30;1.10;;;;;;;20.88;53.81;100249.08;642738;222;23877;-77